Meteorología y climatología de Navarra
Datos de la estación - Meteo Navarra

Estación de Gorramendi GN

Altitud 1071 m.


Datos desde el 07/12/2018 hasta el 08/12/2018 en horario solar
Los datos son PROVISIONALES

Anterior Página 1 de 1 Siguiente Descargar: Formato para Excel 2000 o superior   Formato csv   Formato para OpenOffice Calc
Fecha Temperatura Humedad relativa Radiación global Insolación Precipitación Vel. viento 10 m Vel. viento 10 m Dir. viento 10 m
ºC % W/m² s l/m² m/s km/h º
07/12/2018 0:00 5.0 89 0.0 0 0.0 3.7 13.5 329
07/12/2018 0:10 5.0 88 0.0 0 0.0 4.9 17.6 339
07/12/2018 0:20 5.0 86 0.0 0 0.0 4.4 15.8 329
07/12/2018 0:30 5.0 87 0.0 0 0.0 3.8 13.5 314
07/12/2018 0:40 5.0 87 0.0 0 0.0 4.1 14.9 317
07/12/2018 0:50 5.0 85 0.0 0 0.0 5.0 17.9 338
07/12/2018 1:00 5.0 86 0.0 0 0.0 4.2 15.1 351
07/12/2018 1:10 4.9 87 0.0 0 0.0 3.0 10.9 331
07/12/2018 1:20 4.9 85 0.0 0 0.0 3.2 11.6 340
07/12/2018 1:30 4.9 86 0.0 0 0.0 2.8 10.2 337
07/12/2018 1:40 4.7 89 0.0 0 0.0 2.5 9.0 347
07/12/2018 1:50 4.7 88 0.0 0 0.0 2.0 7.1 330
07/12/2018 2:00 4.7 88 0.0 0 0.0 1.1 4.1 333
07/12/2018 2:10 4.7 88 0.0 0 0.0 1.8 6.6 324
07/12/2018 2:20 4.7 88 0.0 0 0.0 1.4 5.0 308
07/12/2018 2:30 4.5 89 0.0 0 0.0 2.0 7.1 313
07/12/2018 2:40 4.5 89 0.0 0 0.0 0.5 1.9 326
07/12/2018 2:50 4.5 89 0.0 0 0.0 0.0 0.1 324
07/12/2018 3:00 4.5 88 0.0 0 0.0 0.0 0.0 0
07/12/2018 3:10 4.2 90 0.0 0 0.0 0.0 0.0 0
07/12/2018 3:20 4.1 91 0.0 0 0.0 0.0 0.0 0
07/12/2018 3:30 4.0 92 0.0 0 0.0 0.0 0.0 0
07/12/2018 3:40 3.9 92 0.0 0 0.0 1.0 3.5 242
07/12/2018 3:50 3.9 91 0.0 0 0.0 2.9 10.4 231
07/12/2018 4:00 3.7 92 0.0 0 0.0 2.8 10.1 212
07/12/2018 4:10 3.6 91 0.0 0 0.0 3.7 13.3 202
07/12/2018 4:20 3.7 91 0.0 0 0.0 3.1 11.3 207
07/12/2018 4:30 3.8 90 0.0 0 0.0 3.6 12.8 216
07/12/2018 4:40 3.9 89 0.0 0 0.0 3.6 13.0 220
07/12/2018 4:50 3.9 89 0.0 0 0.0 4.3 15.3 227
07/12/2018 5:00 3.9 89 0.0 0 0.0 3.9 13.9 230
07/12/2018 5:10 3.9 88 0.0 0 0.0 4.3 15.4 236
07/12/2018 5:20 4.1 87 0.0 0 0.0 5.0 17.9 243
07/12/2018 5:30 4.1 85 0.0 0 0.0 6.1 21.9 252
07/12/2018 5:40 4.2 83 0.0 0 0.0 6.6 23.8 254
07/12/2018 5:50 4.2 81 0.0 0 0.0 7.3 26.2 259
07/12/2018 6:00 4.3 79 0.0 0 0.0 7.8 28.1 263
07/12/2018 6:10 4.4 78 0.0 0 0.0 8.2 29.6 263
07/12/2018 6:20 4.5 76 0.0 0 0.0 8.6 31.0 263
07/12/2018 6:30 4.4 76 0.0 0 0.0 8.5 30.6 269
07/12/2018 6:40 4.5 75 0.0 0 0.0 8.1 29.3 267
07/12/2018 6:50 4.6 74 0.0 0 0.0 8.2 29.5 270
07/12/2018 7:00 4.5 73 0.0 0 0.0 8.0 28.8 274
07/12/2018 7:10 4.7 72 0.0 0 0.0 7.5 27.0 270
07/12/2018 7:20 4.8 71 0.0 0 0.0 7.1 25.5 274
07/12/2018 7:30 4.9 70 0.0 0 0.0 6.9 24.7 275
07/12/2018 7:40 4.9 70 22.6 110 0.0 6.8 24.6 275
07/12/2018 7:50 5.2 69 43.0 600 0.0 7.5 27.0 281
07/12/2018 8:00 5.9 64 64.2 600 0.0 7.9 28.5 289
07/12/2018 8:10 6.1 64 87.7 600 0.0 7.4 26.7 289
07/12/2018 8:20 6.3 65 112.0 600 0.0 8.2 29.4 300
07/12/2018 8:30 6.6 65 136.7 600 0.0 8.7 31.2 304
07/12/2018 8:40 6.4 67 159.9 600 0.0 7.6 27.2 299
07/12/2018 8:50 6.4 67 195.5 600 0.0 7.5 26.9 294
07/12/2018 9:00 6.8 67 177.0 576 0.0 7.5 27.0 291
07/12/2018 9:10 6.7 66 236.9 600 0.0 6.7 23.9 296
07/12/2018 9:20 6.9 67 252.2 600 0.0 6.4 22.9 297
07/12/2018 9:30 7.1 67 274.8 600 0.0 4.2 15.2 278
07/12/2018 9:40 7.2 67 296.2 600 0.0 5.4 19.4 286
07/12/2018 9:50 7.4 70 316.0 600 0.0 6.6 23.6 296
07/12/2018 10:00 7.6 68 334.6 600 0.0 6.7 24.0 298
07/12/2018 10:10 7.5 68 352.8 600 0.0 6.7 23.9 297
07/12/2018 10:20 7.4 70 370.1 600 0.0 6.6 23.9 300
07/12/2018 10:30 7.5 70 385.2 600 0.0 5.6 20.2 298
07/12/2018 10:40 7.5 69 396.9 600 0.0 5.8 21.0 297
07/12/2018 10:50 7.5 67 405.1 600 0.0 4.9 17.8 280
07/12/2018 11:00 7.8 67 413.4 600 0.0 5.8 21.0 276
07/12/2018 11:10 7.7 70 419.1 600 0.0 6.2 22.4 270
07/12/2018 11:20 7.7 72 426.2 600 0.0 6.2 22.3 252
07/12/2018 11:30 7.8 72 433.8 600 0.0 6.2 22.1 244
07/12/2018 11:40 7.7 72 426.9 600 0.0 7.9 28.5 263
07/12/2018 11:50 8.0 69 430.6 600 0.0 6.7 23.9 268
07/12/2018 12:00 7.9 70 437.8 600 0.0 7.8 28.0 270
07/12/2018 12:10 8.2 69 434.3 600 0.0 8.1 29.2 274
07/12/2018 12:20 8.3 70 430.3 600 0.0 7.9 28.3 271
07/12/2018 12:30 8.4 70 427.8 600 0.0 8.0 28.8 269
07/12/2018 12:40 8.5 70 391.9 568 0.0 8.8 31.6 276
07/12/2018 12:50 8.7 69 261.2 566 0.0 8.6 31.0 276
07/12/2018 13:00 8.5 69 201.6 202 0.0 9.2 33.3 290
07/12/2018 13:10 8.7 68 284.0 570 0.0 12.1 43.6 306
07/12/2018 13:20 8.8 68 176.8 48 0.0 13.6 49.1 314
07/12/2018 13:30 8.7 69 77.3 0 0.0 11.8 42.6 317
07/12/2018 13:40 8.7 71 52.4 0 0.0 12.2 43.9 305
07/12/2018 13:50 8.6 73 45.9 0 0.0 12.1 43.4 304
07/12/2018 14:00 8.6 75 37.7 0 0.0 12.4 44.7 305
07/12/2018 14:10 8.6 77 42.4 0 0.0 11.5 41.4 311
07/12/2018 14:20 8.4 77 47.2 0 0.0 13.6 48.9 319
07/12/2018 14:30 8.4 77 44.4 0 0.0 12.6 45.2 324
07/12/2018 14:40 8.3 79 37.6 0 0.0 14.3 51.4 324
07/12/2018 14:50 8.1 81 27.7 0 0.0 11.8 42.5 325
07/12/2018 15:00 7.9 84 21.2 0 0.0 14.8 53.3 312
07/12/2018 15:10 7.2 93 23.8 0 0.0 16.0 57.5 317
07/12/2018 15:20 7.0 97 25.8 0 0.0 15.8 56.8 322
07/12/2018 15:30 7.0 98 27.2 0 0.0 16.6 59.9 317
07/12/2018 15:40 7.1 99 20.1 0 0.1 15.9 57.3 317
07/12/2018 15:50 7.0 99 22.5 0 0.0 15.4 55.6 320
07/12/2018 16:00 6.9 99 10.0 0 0.0 14.8 53.1 321
07/12/2018 16:10 6.9 99 0.0 0 0.0 12.4 44.8 319
07/12/2018 16:20 6.9 99 0.0 0 0.1 12.3 44.3 319
07/12/2018 16:30 6.9 99 0.0 0 0.1 11.4 41.0 323
07/12/2018 16:40 6.9 99 0.0 0 0.4 14.1 50.6 330
07/12/2018 16:50 6.8 99 0.0 0 0.6 16.4 59.1 327
07/12/2018 17:00 6.5 99 0.0 0 0.3 17.2 62.0 331
07/12/2018 17:10 6.4 99 0.0 0 0.3 17.4 62.6 325
07/12/2018 17:20 6.3 99 0.0 0 0.0 16.9 61.0 329
07/12/2018 17:30 6.3 99 0.0 0 0.1 16.7 60.1 322
07/12/2018 17:40 6.3 99 0.0 0 0.2 16.1 58.0 321
07/12/2018 17:50 6.3 99 0.0 0 0.1 14.7 52.9 327
07/12/2018 18:00 6.3 99 0.0 0 0.1 15.4 55.3 327
07/12/2018 18:10 6.3 99 0.0 0 0.1 16.3 58.8 327
07/12/2018 18:20 6.2 99 0.0 0 0.3 15.3 55.0 325
07/12/2018 18:30 6.2 99 0.0 0 1.0 14.2 51.2 332
07/12/2018 18:40 5.7 99 0.0 0 0.7 17.9 64.6 347
07/12/2018 18:50 5.2 99 0.0 0 0.2 20.3 73.2 330
07/12/2018 19:00 5.1 99 0.0 0 0.2 17.8 64.1 329
07/12/2018 19:10 5.1 99 0.0 0 0.3 17.0 61.1 328
07/12/2018 19:20 5.1 99 0.0 0 0.5 15.8 56.9 332
07/12/2018 19:30 5.0 99 0.0 0 0.7 17.9 64.4 335
07/12/2018 19:40 4.6 99 0.0 0 0.6 19.2 69.0 333
07/12/2018 19:50 4.1 99 0.0 0 0.2 19.0 68.5 338
07/12/2018 20:00 3.8 100 0.0 0 0.0 18.0 64.6 331
07/12/2018 20:10 3.9 99 0.0 0 0.1 18.0 64.8 333
07/12/2018 20:20 3.9 100 0.0 0 0.0 16.0 57.5 330
07/12/2018 20:30 4.0 100 0.0 0 0.0 12.9 46.4 324
07/12/2018 20:40 4.1 99 0.0 0 0.1 11.6 41.9 327
07/12/2018 20:50 4.0 99 0.0 0 0.0 14.0 50.5 330
07/12/2018 21:00 3.7 99 0.0 0 0.0 13.3 47.8 323
07/12/2018 21:10 3.8 100 0.0 0 0.0 12.7 45.7 323
07/12/2018 21:20 3.7 100 0.0 0 0.0 12.3 44.4 329
07/12/2018 21:30 3.8 100 0.0 0 0.0 11.2 40.2 327
07/12/2018 21:40 3.8 100 0.0 0 0.1 11.3 40.5 328
07/12/2018 21:50 3.9 100 0.0 0 0.0 11.0 39.4 328
07/12/2018 22:00 4.0 100 0.0 0 0.1 11.1 39.8 330
07/12/2018 22:10 4.0 100 0.0 0 0.1 11.8 42.5 325
07/12/2018 22:20 4.0 100 0.0 0 0.0 11.2 40.2 326
07/12/2018 22:30 4.0 100 0.0 0 0.0 11.0 39.4 325
07/12/2018 22:40 4.1 100 0.0 0 0.0 10.7 38.6 319
07/12/2018 22:50 4.1 100 0.0 0 0.0 8.6 30.9 313
07/12/2018 23:00 4.2 100 0.0 0 0.0 11.1 40.1 313
07/12/2018 23:10 4.2 100 0.0 0 0.0 9.3 33.3 324
07/12/2018 23:20 4.2 100 0.0 0 0.0 9.7 35.0 327
07/12/2018 23:30 4.1 100 0.0 0 0.0 9.9 35.8 330
07/12/2018 23:40 4.1 100 0.0 0 0.0 9.4 33.8 331
07/12/2018 23:50 4.1 100 0.0 0 0.0 9.7 35.0 335
Anterior Página 1 de 1 Siguiente
Los datos de precipitación registrados en estaciones que están en cumbres son inferiores a lo real, como consecuencia del efecto del viento y de la nieve.


NOTA: Tipo de datos según el color:
   - Valores diarios o 10 minutos correctos
   - Valores diarios calculados a partir de un número de datos 10 minutos menor que 144 y mayor que 120, o de un número de datos semihorarios menor que 48 y mayor que 40 (caso de las estaciones de Riegos de Navarra y del MARM)
   - Valores diez minutos estimados


Contacto        Enlaces        Aviso legal